sensor_id;sensor_type;location;lat;lon;timestamp;P1;durP1;ratioP1;P2;durP2;ratioP2
14754;SDS011;7469;50.906;6.952;2024-03-23T00:52:34;17.07;;;7.63;;
14754;SDS011;7469;50.906;6.952;2024-03-23T00:55:01;19.83;;;8.70;;
14754;SDS011;7469;50.906;6.952;2024-03-23T00:57:27;18.93;;;6.93;;
14754;SDS011;7469;50.906;6.952;2024-03-23T00:59:54;21.40;;;7.70;;
14754;SDS011;7469;50.906;6.952;2024-03-23T01:02:20;23.10;;;8.13;;
14754;SDS011;7469;50.906;6.952;2024-03-23T01:04:47;19.67;;;8.10;;
14754;SDS011;7469;50.906;6.952;2024-03-23T01:07:13;15.87;;;8.47;;
14754;SDS011;7469;50.906;6.952;2024-03-23T01:09:41;18.37;;;7.63;;
14754;SDS011;7469;50.906;6.952;2024-03-23T01:12:07;18.10;;;7.80;;
14754;SDS011;7469;50.906;6.952;2024-03-23T01:14:35;15.27;;;6.70;;
14754;SDS011;7469;50.906;6.952;2024-03-23T01:17:01;16.13;;;7.10;;
14754;SDS011;7469;50.906;6.952;2024-03-23T01:19:28;15.03;;;7.13;;
14754;SDS011;7469;50.906;6.952;2024-03-23T01:21:54;16.70;;;6.77;;
14754;SDS011;7469;50.906;6.952;2024-03-23T01:24:21;15.73;;;7.87;;
14754;SDS011;7469;50.906;6.952;2024-03-23T01:26:48;17.70;;;7.83;;
14754;SDS011;7469;50.906;6.952;2024-03-23T01:29:15;15.87;;;7.33;;
14754;SDS011;7469;50.906;6.952;2024-03-23T01:31:41;12.07;;;5.90;;
14754;SDS011;7469;50.906;6.952;2024-03-23T01:34:08;10.57;;;4.40;;
14754;SDS011;7469;50.906;6.952;2024-03-23T01:36:34;7.40;;;3.53;;
14754;SDS011;7469;50.906;6.952;2024-03-23T01:39:01;6.60;;;3.10;;
14754;SDS011;7469;50.906;6.952;2024-03-23T01:41:28;9.20;;;3.33;;
14754;SDS011;7469;50.906;6.952;2024-03-23T01:43:56;5.57;;;2.50;;
14754;SDS011;7469;50.906;6.952;2024-03-23T01:46:22;4.53;;;2.60;;
14754;SDS011;7469;50.906;6.952;2024-03-23T01:48:49;6.67;;;2.80;;
14754;SDS011;7469;50.906;6.952;2024-03-23T01:51:16;6.97;;;3.57;;
14754;SDS011;7469;50.906;6.952;2024-03-23T01:53:43;7.77;;;3.67;;
14754;SDS011;7469;50.906;6.952;2024-03-23T01:56:09;5.67;;;3.37;;
14754;SDS011;7469;50.906;6.952;2024-03-23T01:58:36;4.57;;;3.13;;
14754;SDS011;7469;50.906;6.952;2024-03-23T02:01:04;8.97;;;3.70;;
14754;SDS011;7469;50.906;6.952;2024-03-23T02:03:31;5.63;;;3.43;;
14754;SDS011;7469;50.906;6.952;2024-03-23T02:05:57;7.93;;;3.50;;
14754;SDS011;7469;50.906;6.952;2024-03-23T02:08:24;7.37;;;3.70;;
14754;SDS011;7469;50.906;6.952;2024-03-23T02:10:50;8.07;;;3.50;;
14754;SDS011;7469;50.906;6.952;2024-03-23T02:13:18;8.93;;;4.17;;
14754;SDS011;7469;50.906;6.952;2024-03-23T02:15:44;7.30;;;3.80;;
14754;SDS011;7469;50.906;6.952;2024-03-23T02:18:12;8.03;;;3.70;;
14754;SDS011;7469;50.906;6.952;2024-03-23T02:20:39;10.97;;;4.40;;
14754;SDS011;7469;50.906;6.952;2024-03-23T02:23:10;9.27;;;3.83;;
14754;SDS011;7469;50.906;6.952;2024-03-23T02:25:38;10.80;;;3.80;;
14754;SDS011;7469;50.906;6.952;2024-03-23T02:28:05;11.27;;;4.17;;
14754;SDS011;7469;50.906;6.952;2024-03-23T02:30:31;8.63;;;3.50;;
14754;SDS011;7469;50.906;6.952;2024-03-23T02:32:58;9.00;;;3.13;;
14754;SDS011;7469;50.906;6.952;2024-03-23T02:35:24;8.53;;;3.40;;
14754;SDS011;7469;50.906;6.952;2024-03-23T02:37:51;8.93;;;3.60;;
14754;SDS011;7469;50.906;6.952;2024-03-23T02:40:19;8.47;;;3.17;;
14754;SDS011;7469;50.906;6.952;2024-03-23T02:42:46;9.73;;;3.37;;
14754;SDS011;7469;50.906;6.952;2024-03-23T02:45:12;5.53;;;2.10;;
14754;SDS011;7469;50.906;6.952;2024-03-23T02:47:39;4.37;;;2.00;;
14754;SDS011;7469;50.906;6.952;2024-03-23T02:50:06;5.63;;;1.90;;
14754;SDS011;7469;50.906;6.952;2024-03-23T02:52:34;3.60;;;1.33;;
14754;SDS011;7469;50.906;6.952;2024-03-23T02:55:00;4.43;;;1.63;;
14754;SDS011;7469;50.906;6.952;2024-03-23T02:57:29;4.93;;;1.87;;
14754;SDS011;7469;50.906;6.952;2024-03-23T02:59:55;9.27;;;2.03;;
14754;SDS011;7469;50.906;6.952;2024-03-23T03:02:22;3.73;;;1.70;;
14754;SDS011;7469;50.906;6.952;2024-03-23T03:04:48;5.43;;;2.10;;
14754;SDS011;7469;50.906;6.952;2024-03-23T03:07:15;7.73;;;2.40;;
14754;SDS011;7469;50.906;6.952;2024-03-23T03:09:41;6.20;;;2.20;;
14754;SDS011;7469;50.906;6.952;2024-03-23T03:12:08;8.63;;;2.60;;
14754;SDS011;7469;50.906;6.952;2024-03-23T03:14:36;7.17;;;2.27;;
14754;SDS011;7469;50.906;6.952;2024-03-23T03:17:03;7.83;;;2.23;;
14754;SDS011;7469;50.906;6.952;2024-03-23T03:19:29;10.03;;;2.97;;
14754;SDS011;7469;50.906;6.952;2024-03-23T03:21:57;8.17;;;2.63;;
14754;SDS011;7469;50.906;6.952;2024-03-23T03:24:23;5.83;;;2.27;;
14754;SDS011;7469;50.906;6.952;2024-03-23T03:26:50;6.50;;;2.70;;
14754;SDS011;7469;50.906;6.952;2024-03-23T03:29:16;8.03;;;2.67;;
14754;SDS011;7469;50.906;6.952;2024-03-23T03:31:45;8.20;;;2.47;;
14754;SDS011;7469;50.906;6.952;2024-03-23T03:34:11;8.40;;;2.97;;
14754;SDS011;7469;50.906;6.952;2024-03-23T03:36:38;8.10;;;2.57;;
14754;SDS011;7469;50.906;6.952;2024-03-23T03:39:04;8.27;;;2.30;;
14754;SDS011;7469;50.906;6.952;2024-03-23T03:41:32;10.13;;;2.60;;
14754;SDS011;7469;50.906;6.952;2024-03-23T03:43:58;7.00;;;1.90;;
14754;SDS011;7469;50.906;6.952;2024-03-23T03:46:27;6.77;;;2.17;;
14754;SDS011;7469;50.906;6.952;2024-03-23T03:48:55;9.37;;;2.27;;
14754;SDS011;7469;50.906;6.952;2024-03-23T03:51:22;8.07;;;1.73;;
14754;SDS011;7469;50.906;6.952;2024-03-23T03:53:48;10.97;;;2.27;;
14754;SDS011;7469;50.906;6.952;2024-03-23T03:56:15;10.90;;;2.63;;
14754;SDS011;7469;50.906;6.952;2024-03-23T03:58:41;8.70;;;2.30;;
14754;SDS011;7469;50.906;6.952;2024-03-23T04:01:08;9.53;;;2.30;;
14754;SDS011;7469;50.906;6.952;2024-03-23T04:03:34;11.00;;;2.20;;
14754;SDS011;7469;50.906;6.952;2024-03-23T04:06:04;9.77;;;1.93;;
14754;SDS011;7469;50.906;6.952;2024-03-23T04:08:30;9.27;;;2.10;;
14754;SDS011;7469;50.906;6.952;2024-03-23T04:10:57;8.97;;;2.10;;
14754;SDS011;7469;50.906;6.952;2024-03-23T04:13:23;9.10;;;1.90;;
14754;SDS011;7469;50.906;6.952;2024-03-23T04:15:53;10.60;;;2.33;;
14754;SDS011;7469;50.906;6.952;2024-03-23T04:18:19;9.30;;;2.60;;
14754;SDS011;7469;50.906;6.952;2024-03-23T04:20:46;4.67;;;2.00;;
14754;SDS011;7469;50.906;6.952;2024-03-23T04:23:14;12.50;;;2.33;;
14754;SDS011;7469;50.906;6.952;2024-03-23T04:25:41;8.97;;;2.07;;
14754;SDS011;7469;50.906;6.952;2024-03-23T04:28:07;8.77;;;2.17;;
14754;SDS011;7469;50.906;6.952;2024-03-23T04:30:34;5.53;;;2.00;;
14754;SDS011;7469;50.906;6.952;2024-03-23T04:33:00;11.00;;;2.20;;
14754;SDS011;7469;50.906;6.952;2024-03-23T04:35:27;9.20;;;2.30;;
14754;SDS011;7469;50.906;6.952;2024-03-23T04:37:53;6.70;;;2.27;;
14754;SDS011;7469;50.906;6.952;2024-03-23T04:40:22;8.43;;;2.17;;
14754;SDS011;7469;50.906;6.952;2024-03-23T04:42:49;10.30;;;2.57;;
14754;SDS011;7469;50.906;6.952;2024-03-23T04:45:16;7.17;;;2.10;;
14754;SDS011;7469;50.906;6.952;2024-03-23T04:47:43;11.30;;;2.63;;
14754;SDS011;7469;50.906;6.952;2024-03-23T04:50:10;8.20;;;1.90;;
14754;SDS011;7469;50.906;6.952;2024-03-23T04:52:37;7.73;;;2.37;;
14754;SDS011;7469;50.906;6.952;2024-03-23T04:55:05;9.57;;;2.57;;
14754;SDS011;7469;50.906;6.952;2024-03-23T04:57:33;11.70;;;2.90;;
14754;SDS011;7469;50.906;6.952;2024-03-23T04:59:59;11.80;;;2.43;;
14754;SDS011;7469;50.906;6.952;2024-03-23T05:02:27;11.63;;;2.50;;
14754;SDS011;7469;50.906;6.952;2024-03-23T05:04:54;9.50;;;2.37;;
14754;SDS011;7469;50.906;6.952;2024-03-23T05:07:20;9.50;;;2.57;;
14754;SDS011;7469;50.906;6.952;2024-03-23T05:09:47;11.37;;;3.00;;
14754;SDS011;7469;50.906;6.952;2024-03-23T05:12:14;10.97;;;2.90;;
14754;SDS011;7469;50.906;6.952;2024-03-23T05:14:42;9.27;;;2.63;;
14754;SDS011;7469;50.906;6.952;2024-03-23T05:17:08;9.97;;;2.53;;
14754;SDS011;7469;50.906;6.952;2024-03-23T05:19:35;11.47;;;2.70;;
14754;SDS011;7469;50.906;6.952;2024-03-23T05:22:01;10.73;;;2.53;;
14754;SDS011;7469;50.906;6.952;2024-03-23T05:24:28;12.70;;;2.27;;
14754;SDS011;7469;50.906;6.952;2024-03-23T05:26:54;8.63;;;2.50;;
14754;SDS011;7469;50.906;6.952;2024-03-23T05:29:24;10.57;;;2.40;;
14754;SDS011;7469;50.906;6.952;2024-03-23T05:31:51;6.73;;;2.30;;
14754;SDS011;7469;50.906;6.952;2024-03-23T05:34:21;8.67;;;2.40;;
14754;SDS011;7469;50.906;6.952;2024-03-23T05:36:47;7.23;;;2.20;;
14754;SDS011;7469;50.906;6.952;2024-03-23T05:39:15;10.60;;;2.70;;
14754;SDS011;7469;50.906;6.952;2024-03-23T05:41:41;14.60;;;3.03;;
14754;SDS011;7469;50.906;6.952;2024-03-23T05:44:08;11.63;;;2.90;;
14754;SDS011;7469;50.906;6.952;2024-03-23T05:46:36;9.67;;;2.87;;
14754;SDS011;7469;50.906;6.952;2024-03-23T05:49:04;10.83;;;2.80;;
14754;SDS011;7469;50.906;6.952;2024-03-23T05:51:30;15.47;;;3.10;;
14754;SDS011;7469;50.906;6.952;2024-03-23T05:53:58;10.43;;;2.90;;
14754;SDS011;7469;50.906;6.952;2024-03-23T05:56:24;10.87;;;3.03;;
14754;SDS011;7469;50.906;6.952;2024-03-23T05:58:52;12.83;;;2.83;;
14754;SDS011;7469;50.906;6.952;2024-03-23T06:01:18;13.63;;;3.10;;
14754;SDS011;7469;50.906;6.952;2024-03-23T06:03:45;11.97;;;3.23;;
14754;SDS011;7469;50.906;6.952;2024-03-23T06:06:12;11.90;;;3.23;;
14754;SDS011;7469;50.906;6.952;2024-03-23T06:08:39;11.47;;;2.63;;
14754;SDS011;7469;50.906;6.952;2024-03-23T06:11:06;8.97;;;2.70;;
14754;SDS011;7469;50.906;6.952;2024-03-23T06:13:33;15.17;;;3.40;;
14754;SDS011;7469;50.906;6.952;2024-03-23T06:16:00;12.50;;;2.53;;
14754;SDS011;7469;50.906;6.952;2024-03-23T06:18:27;13.60;;;3.33;;
14754;SDS011;7469;50.906;6.952;2024-03-23T06:20:53;9.90;;;3.40;;
14754;SDS011;7469;50.906;6.952;2024-03-23T06:23:22;10.87;;;2.50;;
14754;SDS011;7469;50.906;6.952;2024-03-23T06:25:48;9.10;;;2.63;;
14754;SDS011;7469;50.906;6.952;2024-03-23T06:28:15;11.60;;;3.43;;
14754;SDS011;7469;50.906;6.952;2024-03-23T06:30:41;13.87;;;3.23;;
14754;SDS011;7469;50.906;6.952;2024-03-23T06:33:08;11.77;;;3.30;;
14754;SDS011;7469;50.906;6.952;2024-03-23T06:35:34;12.23;;;2.87;;
14754;SDS011;7469;50.906;6.952;2024-03-23T06:38:01;10.83;;;3.20;;
14754;SDS011;7469;50.906;6.952;2024-03-23T06:40:28;13.73;;;3.03;;
14754;SDS011;7469;50.906;6.952;2024-03-23T06:42:55;10.33;;;2.87;;
14754;SDS011;7469;50.906;6.952;2024-03-23T06:45:21;13.03;;;3.20;;
14754;SDS011;7469;50.906;6.952;2024-03-23T06:47:49;14.53;;;3.13;;
14754;SDS011;7469;50.906;6.952;2024-03-23T06:50:15;13.00;;;2.77;;
14754;SDS011;7469;50.906;6.952;2024-03-23T06:52:42;11.80;;;2.90;;
14754;SDS011;7469;50.906;6.952;2024-03-23T06:55:08;8.97;;;3.03;;
14754;SDS011;7469;50.906;6.952;2024-03-23T06:57:37;11.97;;;2.97;;
14754;SDS011;7469;50.906;6.952;2024-03-23T07:00:03;13.73;;;2.90;;
14754;SDS011;7469;50.906;6.952;2024-03-23T07:02:35;6.93;;;2.70;;
14754;SDS011;7469;50.906;6.952;2024-03-23T07:05:01;8.67;;;2.70;;
14754;SDS011;7469;50.906;6.952;2024-03-23T07:07:28;14.53;;;3.57;;
14754;SDS011;7469;50.906;6.952;2024-03-23T07:09:55;10.80;;;3.47;;
14754;SDS011;7469;50.906;6.952;2024-03-23T07:12:22;16.13;;;3.20;;
14754;SDS011;7469;50.906;6.952;2024-03-23T07:14:50;10.83;;;3.13;;
14754;SDS011;7469;50.906;6.952;2024-03-23T07:17:17;14.70;;;3.63;;
14754;SDS011;7469;50.906;6.952;2024-03-23T07:19:43;11.37;;;2.97;;
14754;SDS011;7469;50.906;6.952;2024-03-23T07:22:10;14.43;;;4.03;;
14754;SDS011;7469;50.906;6.952;2024-03-23T07:24:36;11.70;;;3.20;;
14754;SDS011;7469;50.906;6.952;2024-03-23T07:27:05;15.20;;;4.07;;
14754;SDS011;7469;50.906;6.952;2024-03-23T07:29:35;10.80;;;3.90;;
14754;SDS011;7469;50.906;6.952;2024-03-23T07:32:04;15.60;;;5.20;;
14754;SDS011;7469;50.906;6.952;2024-03-23T07:34:30;13.00;;;4.23;;
14754;SDS011;7469;50.906;6.952;2024-03-23T07:36:57;11.93;;;4.90;;
14754;SDS011;7469;50.906;6.952;2024-03-23T07:39:23;13.70;;;4.70;;
14754;SDS011;7469;50.906;6.952;2024-03-23T07:41:53;17.57;;;5.33;;
14754;SDS011;7469;50.906;6.952;2024-03-23T07:44:19;14.87;;;4.83;;
14754;SDS011;7469;50.906;6.952;2024-03-23T07:46:46;18.53;;;6.37;;
14754;SDS011;7469;50.906;6.952;2024-03-23T07:49:13;15.03;;;5.87;;
14754;SDS011;7469;50.906;6.952;2024-03-23T07:51:40;14.20;;;5.80;;
14754;SDS011;7469;50.906;6.952;2024-03-23T07:54:06;17.53;;;6.17;;
14754;SDS011;7469;50.906;6.952;2024-03-23T07:56:33;14.70;;;5.83;;
14754;SDS011;7469;50.906;6.952;2024-03-23T07:58:59;17.80;;;6.23;;
14754;SDS011;7469;50.906;6.952;2024-03-23T08:01:28;13.07;;;5.57;;
14754;SDS011;7469;50.906;6.952;2024-03-23T08:03:55;17.97;;;6.60;;
14754;SDS011;7469;50.906;6.952;2024-03-23T08:06:23;17.43;;;6.17;;
14754;SDS011;7469;50.906;6.952;2024-03-23T08:08:51;12.60;;;5.93;;
14754;SDS011;7469;50.906;6.952;2024-03-23T08:11:24;19.50;;;6.23;;
14754;SDS011;7469;50.906;6.952;2024-03-23T08:13:50;13.67;;;5.40;;
14754;SDS011;7469;50.906;6.952;2024-03-23T08:16:17;13.47;;;4.80;;
14754;SDS011;7469;50.906;6.952;2024-03-23T08:18:44;9.53;;;4.20;;
14754;SDS011;7469;50.906;6.952;2024-03-23T08:21:11;9.03;;;3.40;;
14754;SDS011;7469;50.906;6.952;2024-03-23T08:23:38;6.67;;;3.13;;
14754;SDS011;7469;50.906;6.952;2024-03-23T08:26:06;5.80;;;2.30;;
14754;SDS011;7469;50.906;6.952;2024-03-23T08:28:34;8.40;;;2.23;;
14754;SDS011;7469;50.906;6.952;2024-03-23T08:31:02;4.53;;;1.90;;
14754;SDS011;7469;50.906;6.952;2024-03-23T08:33:30;6.30;;;2.17;;
14754;SDS011;7469;50.906;6.952;2024-03-23T08:35:58;5.67;;;2.13;;
14754;SDS011;7469;50.906;6.952;2024-03-23T08:38:26;7.83;;;2.50;;
14754;SDS011;7469;50.906;6.952;2024-03-23T08:40:58;6.97;;;2.50;;
14754;SDS011;7469;50.906;6.952;2024-03-23T08:43:24;8.97;;;2.87;;
14754;SDS011;7469;50.906;6.952;2024-03-23T08:45:52;7.87;;;2.50;;
14754;SDS011;7469;50.906;6.952;2024-03-23T08:48:18;5.43;;;2.67;;
14754;SDS011;7469;50.906;6.952;2024-03-23T08:50:46;8.60;;;3.20;;
14754;SDS011;7469;50.906;6.952;2024-03-23T08:53:12;8.37;;;3.43;;
14754;SDS011;7469;50.906;6.952;2024-03-23T08:55:40;12.30;;;3.37;;
14754;SDS011;7469;50.906;6.952;2024-03-23T08:58:08;10.47;;;3.90;;
14754;SDS011;7469;50.906;6.952;2024-03-23T09:00:35;12.30;;;4.53;;
14754;SDS011;7469;50.906;6.952;2024-03-23T09:03:01;14.27;;;4.53;;
14754;SDS011;7469;50.906;6.952;2024-03-23T09:05:29;16.37;;;5.30;;
14754;SDS011;7469;50.906;6.952;2024-03-23T09:08:01;17.57;;;4.97;;
14754;SDS011;7469;50.906;6.952;2024-03-23T09:10:28;16.63;;;5.27;;
14754;SDS011;7469;50.906;6.952;2024-03-23T09:12:54;10.23;;;4.83;;
14754;SDS011;7469;50.906;6.952;2024-03-23T09:15:22;12.43;;;4.47;;
14754;SDS011;7469;50.906;6.952;2024-03-23T09:17:48;12.83;;;5.00;;
14754;SDS011;7469;50.906;6.952;2024-03-23T09:20:15;12.73;;;4.50;;
14754;SDS011;7469;50.906;6.952;2024-03-23T09:22:41;10.23;;;4.17;;
14754;SDS011;7469;50.906;6.952;2024-03-23T09:25:08;11.47;;;4.17;;
14754;SDS011;7469;50.906;6.952;2024-03-23T09:27:34;11.03;;;3.90;;
14754;SDS011;7469;50.906;6.952;2024-03-23T09:30:01;12.60;;;3.70;;
14754;SDS011;7469;50.906;6.952;2024-03-23T09:32:30;15.23;;;4.07;;
14754;SDS011;7469;50.906;6.952;2024-03-23T09:34:57;14.97;;;3.47;;
14754;SDS011;7469;50.906;6.952;2024-03-23T09:37:22;15.77;;;3.97;;
14754;SDS011;7469;50.906;6.952;2024-03-23T09:39:49;16.47;;;3.83;;
14754;SDS011;7469;50.906;6.952;2024-03-23T09:42:15;14.13;;;3.67;;
14754;SDS011;7469;50.906;6.952;2024-03-23T09:44:43;9.83;;;3.43;;
14754;SDS011;7469;50.906;6.952;2024-03-23T09:47:10;15.87;;;4.07;;
14754;SDS011;7469;50.906;6.952;2024-03-23T09:49:38;8.40;;;3.10;;
14754;SDS011;7469;50.906;6.952;2024-03-23T09:52:05;8.70;;;3.23;;
14754;SDS011;7469;50.906;6.952;2024-03-23T09:54:33;8.90;;;3.00;;
14754;SDS011;7469;50.906;6.952;2024-03-23T09:56:59;11.10;;;3.30;;
14754;SDS011;7469;50.906;6.952;2024-03-23T09:59:26;9.70;;;2.80;;
14754;SDS011;7469;50.906;6.952;2024-03-23T10:01:52;12.43;;;2.83;;
14754;SDS011;7469;50.906;6.952;2024-03-23T10:04:35;7.20;;;2.47;;
14754;SDS011;7469;50.906;6.952;2024-03-23T10:07:10;10.43;;;2.70;;
14754;SDS011;7469;50.906;6.952;2024-03-23T10:09:38;10.80;;;2.60;;
14754;SDS011;7469;50.906;6.952;2024-03-23T10:12:08;8.43;;;2.30;;
14754;SDS011;7469;50.906;6.952;2024-03-23T10:14:36;6.93;;;2.37;;
14754;SDS011;7469;50.906;6.952;2024-03-23T10:17:12;5.47;;;2.27;;
14754;SDS011;7469;50.906;6.952;2024-03-23T10:19:40;6.23;;;2.33;;
14754;SDS011;7469;50.906;6.952;2024-03-23T10:22:08;7.43;;;2.47;;
14754;SDS011;7469;50.906;6.952;2024-03-23T10:24:39;6.00;;;2.07;;
14754;SDS011;7469;50.906;6.952;2024-03-23T10:27:05;7.33;;;2.40;;
14754;SDS011;7469;50.906;6.952;2024-03-23T10:29:32;6.60;;;2.00;;
14754;SDS011;7469;50.906;6.952;2024-03-23T10:32:08;8.37;;;2.23;;
14754;SDS011;7469;50.906;6.952;2024-03-23T10:34:36;6.37;;;2.03;;
14754;SDS011;7469;50.906;6.952;2024-03-23T10:37:02;4.60;;;1.70;;
14754;SDS011;7469;50.906;6.952;2024-03-23T10:39:32;4.13;;;1.40;;
14754;SDS011;7469;50.906;6.952;2024-03-23T10:42:00;5.27;;;1.50;;
14754;SDS011;7469;50.906;6.952;2024-03-23T10:44:30;4.10;;;1.70;;
14754;SDS011;7469;50.906;6.952;2024-03-23T10:46:57;5.77;;;1.47;;
14754;SDS011;7469;50.906;6.952;2024-03-23T10:49:28;7.27;;;1.93;;
14754;SDS011;7469;50.906;6.952;2024-03-23T10:51:56;6.30;;;1.80;;
14754;SDS011;7469;50.906;6.952;2024-03-23T10:54:24;7.10;;;2.10;;
14754;SDS011;7469;50.906;6.952;2024-03-23T10:56:54;4.70;;;1.80;;
14754;SDS011;7469;50.906;6.952;2024-03-23T10:59:25;3.53;;;1.50;;
14754;SDS011;7469;50.906;6.952;2024-03-23T11:01:55;3.90;;;1.73;;
14754;SDS011;7469;50.906;6.952;2024-03-23T11:04:29;6.47;;;2.40;;
14754;SDS011;7469;50.906;6.952;2024-03-23T11:06:56;6.37;;;2.10;;
14754;SDS011;7469;50.906;6.952;2024-03-23T11:09:39;6.03;;;2.10;;
14754;SDS011;7469;50.906;6.952;2024-03-23T11:12:27;4.80;;;1.57;;
14754;SDS011;7469;50.906;6.952;2024-03-23T11:14:57;7.03;;;1.87;;
14754;SDS011;7469;50.906;6.952;2024-03-23T11:17:28;9.13;;;2.27;;
14754;SDS011;7469;50.906;6.952;2024-03-23T11:19:56;4.10;;;1.50;;
14754;SDS011;7469;50.906;6.952;2024-03-23T11:22:37;6.97;;;2.00;;
14754;SDS011;7469;50.906;6.952;2024-03-23T11:25:12;5.53;;;1.70;;
14754;SDS011;7469;50.906;6.952;2024-03-23T11:27:44;7.73;;;2.20;;
14754;SDS011;7469;50.906;6.952;2024-03-23T11:30:12;6.27;;;2.07;;
14754;SDS011;7469;50.906;6.952;2024-03-23T11:32:39;5.77;;;1.90;;
14754;SDS011;7469;50.906;6.952;2024-03-23T11:35:06;7.10;;;2.27;;
14754;SDS011;7469;50.906;6.952;2024-03-23T11:37:35;4.87;;;1.83;;
14754;SDS011;7469;50.906;6.952;2024-03-23T11:40:19;2.83;;;1.50;;
14754;SDS011;7469;50.906;6.952;2024-03-23T11:42:47;3.57;;;1.30;;
14754;SDS011;7469;50.906;6.952;2024-03-23T11:45:22;4.23;;;1.30;;
14754;SDS011;7469;50.906;6.952;2024-03-23T11:47:48;5.43;;;1.70;;
14754;SDS011;7469;50.906;6.952;2024-03-23T11:50:19;1.93;;;1.20;;
14754;SDS011;7469;50.906;6.952;2024-03-23T11:52:45;3.47;;;1.47;;
14754;SDS011;7469;50.906;6.952;2024-03-23T11:55:12;3.43;;;1.37;;
14754;SDS011;7469;50.906;6.952;2024-03-23T11:57:38;11.80;;;3.27;;
14754;SDS011;7469;50.906;6.952;2024-03-23T12:02:49;7.73;;;2.97;;
14754;SDS011;7469;50.906;6.952;2024-03-23T12:05:16;5.17;;;1.93;;
14754;SDS011;7469;50.906;6.952;2024-03-23T12:07:43;7.63;;;1.40;;
14754;SDS011;7469;50.906;6.952;2024-03-23T12:10:10;8.43;;;2.20;;
14754;SDS011;7469;50.906;6.952;2024-03-23T12:12:35;2.97;;;1.30;;
14754;SDS011;7469;50.906;6.952;2024-03-23T12:15:03;2.50;;;1.30;;
14754;SDS011;7469;50.906;6.952;2024-03-23T12:17:32;6.83;;;1.30;;
14754;SDS011;7469;50.906;6.952;2024-03-23T12:20:00;5.87;;;1.40;;
14754;SDS011;7469;50.906;6.952;2024-03-23T12:22:26;3.77;;;1.20;;
14754;SDS011;7469;50.906;6.952;2024-03-23T12:24:54;5.50;;;1.57;;
14754;SDS011;7469;50.906;6.952;2024-03-23T12:27:20;4.43;;;1.80;;
14754;SDS011;7469;50.906;6.952;2024-03-23T12:29:48;3.03;;;1.57;;
14754;SDS011;7469;50.906;6.952;2024-03-23T12:32:14;2.80;;;1.60;;
14754;SDS011;7469;50.906;6.952;2024-03-23T12:34:43;2.83;;;1.27;;
14754;SDS011;7469;50.906;6.952;2024-03-23T12:37:09;3.43;;;0.93;;
14754;SDS011;7469;50.906;6.952;2024-03-23T12:39:37;2.57;;;1.00;;
14754;SDS011;7469;50.906;6.952;2024-03-23T12:42:04;1.63;;;1.00;;
14754;SDS011;7469;50.906;6.952;2024-03-23T12:44:31;2.53;;;1.23;;
14754;SDS011;7469;50.906;6.952;2024-03-23T12:46:57;2.20;;;1.23;;
14754;SDS011;7469;50.906;6.952;2024-03-23T12:49:24;1.90;;;1.00;;
14754;SDS011;7469;50.906;6.952;2024-03-23T12:51:54;1.90;;;0.90;;
14754;SDS011;7469;50.906;6.952;2024-03-23T12:54:22;1.90;;;0.70;;
14754;SDS011;7469;50.906;6.952;2024-03-23T12:56:49;1.40;;;0.83;;
14754;SDS011;7469;50.906;6.952;2024-03-23T12:59:16;1.83;;;0.87;;
14754;SDS011;7469;50.906;6.952;2024-03-23T13:01:43;3.40;;;0.77;;
14754;SDS011;7469;50.906;6.952;2024-03-23T13:04:10;3.07;;;0.80;;
14754;SDS011;7469;50.906;6.952;2024-03-23T13:06:37;1.87;;;0.87;;
14754;SDS011;7469;50.906;6.952;2024-03-23T13:09:05;1.13;;;0.73;;
14754;SDS011;7469;50.906;6.952;2024-03-23T13:11:32;1.40;;;0.83;;
14754;SDS011;7469;50.906;6.952;2024-03-23T13:13:58;2.27;;;0.80;;
14754;SDS011;7469;50.906;6.952;2024-03-23T13:16:25;4.67;;;1.00;;
14754;SDS011;7469;50.906;6.952;2024-03-23T13:18:51;1.90;;;0.73;;
14754;SDS011;7469;50.906;6.952;2024-03-23T13:21:18;1.43;;;1.00;;
14754;SDS011;7469;50.906;6.952;2024-03-23T13:23:46;4.60;;;1.10;;
14754;SDS011;7469;50.906;6.952;2024-03-23T13:26:16;4.97;;;1.53;;
14754;SDS011;7469;50.906;6.952;2024-03-23T13:28:42;3.07;;;1.33;;
14754;SDS011;7469;50.906;6.952;2024-03-23T13:31:10;2.03;;;1.20;;
14754;SDS011;7469;50.906;6.952;2024-03-23T13:33:36;2.97;;;1.63;;
14754;SDS011;7469;50.906;6.952;2024-03-23T13:36:03;3.87;;;1.10;;
14754;SDS011;7469;50.906;6.952;2024-03-23T13:38:29;2.63;;;1.20;;
14754;SDS011;7469;50.906;6.952;2024-03-23T13:40:57;4.17;;;1.40;;
14754;SDS011;7469;50.906;6.952;2024-03-23T13:43:26;5.17;;;1.43;;
14754;SDS011;7469;50.906;6.952;2024-03-23T13:45:53;4.57;;;1.90;;
14754;SDS011;7469;50.906;6.952;2024-03-23T13:48:21;6.53;;;1.50;;
14754;SDS011;7469;50.906;6.952;2024-03-23T13:50:56;4.07;;;1.40;;
14754;SDS011;7469;50.906;6.952;2024-03-23T13:53:23;4.37;;;1.87;;
14754;SDS011;7469;50.906;6.952;2024-03-23T13:55:50;7.10;;;1.70;;
14754;SDS011;7469;50.906;6.952;2024-03-23T13:58:16;4.70;;;2.00;;
14754;SDS011;7469;50.906;6.952;2024-03-23T14:00:44;4.00;;;1.70;;
14754;SDS011;7469;50.906;6.952;2024-03-23T14:03:11;3.80;;;1.80;;
14754;SDS011;7469;50.906;6.952;2024-03-23T14:05:38;2.53;;;1.30;;
14754;SDS011;7469;50.906;6.952;2024-03-23T14:08:05;3.83;;;1.20;;
14754;SDS011;7469;50.906;6.952;2024-03-23T14:10:32;1.90;;;0.97;;
14754;SDS011;7469;50.906;6.952;2024-03-23T14:12:58;4.73;;;1.30;;
14754;SDS011;7469;50.906;6.952;2024-03-23T14:15:26;3.60;;;1.30;;
14754;SDS011;7469;50.906;6.952;2024-03-23T14:17:53;3.40;;;1.20;;
14754;SDS011;7469;50.906;6.952;2024-03-23T14:20:20;4.57;;;1.10;;
14754;SDS011;7469;50.906;6.952;2024-03-23T14:22:47;2.13;;;0.90;;
14754;SDS011;7469;50.906;6.952;2024-03-23T14:25:14;3.53;;;1.17;;
14754;SDS011;7469;50.906;6.952;2024-03-23T14:27:40;3.13;;;1.27;;
14754;SDS011;7469;50.906;6.952;2024-03-23T14:30:08;3.53;;;1.30;;
14754;SDS011;7469;50.906;6.952;2024-03-23T14:32:34;2.30;;;1.27;;
14754;SDS011;7469;50.906;6.952;2024-03-23T14:35:04;2.17;;;1.23;;
14754;SDS011;7469;50.906;6.952;2024-03-23T14:37:31;3.20;;;1.40;;
14754;SDS011;7469;50.906;6.952;2024-03-23T14:39:58;3.03;;;1.27;;
14754;SDS011;7469;50.906;6.952;2024-03-23T14:42:24;3.07;;;1.30;;
14754;SDS011;7469;50.906;6.952;2024-03-23T14:44:51;1.87;;;1.00;;
14754;SDS011;7469;50.906;6.952;2024-03-23T14:47:18;4.37;;;1.33;;
14754;SDS011;7469;50.906;6.952;2024-03-23T14:49:46;1.53;;;1.00;;
14754;SDS011;7469;50.906;6.952;2024-03-23T14:52:13;3.50;;;1.23;;
14754;SDS011;7469;50.906;6.952;2024-03-23T14:54:41;2.00;;;1.10;;
14754;SDS011;7469;50.906;6.952;2024-03-23T14:57:07;3.37;;;1.37;;
14754;SDS011;7469;50.906;6.952;2024-03-23T14:59:34;5.30;;;1.27;;
14754;SDS011;7469;50.906;6.952;2024-03-23T15:02:00;3.33;;;1.17;;
14754;SDS011;7469;50.906;6.952;2024-03-23T15:04:27;3.87;;;1.30;;
14754;SDS011;7469;50.906;6.952;2024-03-23T15:06:53;1.47;;;0.90;;
14754;SDS011;7469;50.906;6.952;2024-03-23T15:09:21;2.60;;;1.30;;
14754;SDS011;7469;50.906;6.952;2024-03-23T15:11:48;1.40;;;1.10;;
14754;SDS011;7469;50.906;6.952;2024-03-23T15:14:15;2.17;;;1.20;;
14754;SDS011;7469;50.906;6.952;2024-03-23T15:16:41;3.33;;;1.37;;
14754;SDS011;7469;50.906;6.952;2024-03-23T15:19:08;4.63;;;1.53;;
14754;SDS011;7469;50.906;6.952;2024-03-23T15:21:34;6.40;;;1.70;;
14754;SDS011;7469;50.906;6.952;2024-03-23T15:24:01;4.50;;;1.83;;
14754;SDS011;7469;50.906;6.952;2024-03-23T15:26:29;4.67;;;1.73;;
14754;SDS011;7469;50.906;6.952;2024-03-23T15:28:56;2.70;;;1.57;;
14754;SDS011;7469;50.906;6.952;2024-03-23T15:31:37;3.13;;;1.37;;
14754;SDS011;7469;50.906;6.952;2024-03-23T15:34:04;3.90;;;1.50;;
14754;SDS011;7469;50.906;6.952;2024-03-23T15:36:30;2.83;;;1.60;;
14754;SDS011;7469;50.906;6.952;2024-03-23T15:38:57;3.53;;;1.60;;
14754;SDS011;7469;50.906;6.952;2024-03-23T15:41:23;1.77;;;1.57;;
14754;SDS011;7469;50.906;6.952;2024-03-23T15:43:52;4.40;;;1.47;;
14754;SDS011;7469;50.906;6.952;2024-03-23T15:46:18;4.80;;;1.73;;
14754;SDS011;7469;50.906;6.952;2024-03-23T15:48:45;2.23;;;1.30;;
14754;SDS011;7469;50.906;6.952;2024-03-23T15:51:12;2.40;;;1.10;;
14754;SDS011;7469;50.906;6.952;2024-03-23T15:53:39;6.33;;;1.40;;